North Arm Wave — CY6828 — position and weather

sailwx.info

Track history (hours):
 
Tides and Currents Weather Stations Pressure Air Temp Water Temp Dewpoint Dewpoint Depression Visibility Wind Speed Wind Dir Waves Ship Positions

North Arm Wave

Last reported at 2018-Jul-20 12:00 UTC. Time now 2018-Jul-22 04:59 UTC.
Position N 52°43' W 128°34'.

Length 19 m; draft 4 m.

Type: Tug. MMSI: 316005494.

Date/timePositionNaut miles runAvg speedWind from/ knotsBaromVisibWave heightAir tempDewpointWater temp
2018-Jul-20 12:00N 52°43' W 128°34'4 7.0
2018-Jul-20 11:28N 52°40' W 128°32'3 6.8
2018-Jul-20 11:00N 52°37' W 128°29'3 5.6
2018-Jul-20 10:30N 52°34' W 128°28'4 7.2
2018-Jul-20 10:00N 52°31' W 128°27'4 7.2
2018-Jul-20 09:30N 52°27' W 128°28'3 7.0
2018-Jul-20 09:00N 52°24' W 128°30'3 6.9
2018-Jul-20 08:30N 52°21' W 128°31'3 6.6
2018-Jul-20 08:00N 52°18' W 128°30'3 5.8
2018-Jul-20 07:30N 52°16' W 128°26'3 6.7
2018-Jul-20 07:00N 52°15' W 128°21'4 7.2
2018-Jul-20 06:30N 52°14' W 128°15'3 6.5
2018-Jul-20 06:00N 52°13' W 128°10'3 6.2
2018-Jul-20 05:30N 52°11' W 128°06'3 6.3
2018-Jul-20 05:00N 52°08' W 128°08'3 6.4
2018-Jul-20 04:30N 52°05' W 128°07'3 6.3
2018-Jul-20 04:00N 52°04' W 128°02'3 6.8
2018-Jul-20 03:30N 52°04' W 127°56'3 5.1
2018-Jul-20 03:00N 52°01' W 127°56'3 6.4
2018-Jul-20 02:30N 51°58' W 127°56'3 6.5
2018-Jul-20 02:00N 51°55' W 127°56'3 6.7
2018-Jul-20 01:30N 51°51' W 127°57'3 6.9
2018-Jul-20 01:00N 51°48' W 127°57'4 7.1
2018-Jul-20 00:30N 51°44' W 127°57'3 6.8
2018-Jul-20 00:00N 51°41' W 127°56'3 6.0
2018-Jul-19 23:30N 51°38' W 127°54'3 5.9
2018-Jul-19 23:00N 51°35' W 127°53'3 6.3
2018-Jul-19 22:30N 51°32' W 127°52'3 6.2
2018-Jul-19 22:00N 51°29' W 127°52'3 6.6
2018-Jul-19 21:30N 51°26' W 127°52'3 6.0
2018-Jul-19 21:00N 51°23' W 127°53'3 5.4
2018-Jul-19 20:30N 51°20' W 127°53'3 5.2
2018-Jul-19 20:00N 51°18' W 127°53'3 5.1
2018-Jul-19 19:30N 51°15' W 127°52'3 5.2
2018-Jul-19 18:59N 51°12' W 127°52'3 5.2
2018-Jul-19 18:30N 51°10' W 127°50'3 5.3
2018-Jul-19 18:00N 51°08' W 127°48'3 5.6
2018-Jul-19 17:30N 51°06' W 127°45'3 5.5
2018-Jul-19 17:00N 51°04' W 127°42'3 6.1
2018-Jul-19 16:30N 51°02' W 127°38'3 6.5
2018-Jul-19 16:00N 50°59' W 127°35'3 6.6
2018-Jul-19 15:30N 50°58' W 127°30'3 6.5
2018-Jul-19 14:59N 50°56' W 127°26'6 6.5
2018-Jul-19 14:00N 50°52' W 127°18'3 6.8
2018-Jul-19 13:30N 50°50' W 127°13'3 6.7
2018-Jul-19 12:58N 50°49' W 127°08'3 6.0
2018-Jul-19 12:30N 50°47' W 127°04'3 6.8
2018-Jul-19 12:00N 50°45' W 127°00'3 6.1
2018-Jul-19 11:30N 50°43' W 126°57'3 6.0
2018-Jul-19 11:00N 50°41' W 126°53'3 5.9
2018-Jul-19 10:30N 50°39' W 126°50'3 6.5
2018-Jul-19 10:00N 50°36' W 126°49'4 7.6
2018-Jul-19 09:30N 50°33' W 126°45'4 7.3
2018-Jul-19 09:00N 50°31' W 126°40'4 7.1
2018-Jul-19 08:30N 50°30' W 126°35'4 7.7
2018-Jul-19 08:00N 50°30' W 126°29'4 7.4
2018-Jul-19 07:28N 50°30' W 126°22'5 7.4
2018-Jul-19 06:48N 50°29' W 126°15'2 7.5
2018-Jul-19 06:29N 50°29' W 126°11'4 7.0
2018-Jul-19 05:58N 50°28' W 126°05'3 5.8
2018-Jul-19 05:27N 50°27' W 126°01'19 4.7
2018-Jul-19 01:26N 50°22' W 125°33'2 3.3
2018-Jul-19 00:58N 50°21' W 125°30'3 5.4
2018-Jul-19 00:29N 50°20' W 125°27'3 5.9
2018-Jul-18 23:58N 50°17' W 125°25'3 6.9
2018-Jul-18 23:30N 50°14' W 125°23'4 7.4
2018-Jul-18 23:00N 50°11' W 125°22'3 6.8
2018-Jul-18 22:30N 50°07' W 125°21'4 7.8
2018-Jul-18 22:00N 50°05' W 125°16'4 7.7
2018-Jul-18 21:30N 50°02' W 125°13'4 6.8
2018-Jul-18 21:00N 49°59' W 125°10'4 7.6
2018-Jul-18 20:29N 49°57' W 125°05'3 6.8
2018-Jul-18 19:59N 49°55' W 124°60'3 6.8
2018-Jul-18 19:30N 49°54' W 124°55'4 7.3
2018-Jul-18 19:00N 49°52' W 124°51'4 7.6
2018-Jul-18 18:30N 49°50' W 124°46'4 7.5
2018-Jul-18 18:00N 49°49' W 124°40'4 7.3
2018-Jul-18 17:30N 49°48' W 124°34'4 7.5
2018-Jul-18 17:00N 49°46' W 124°29'4 7.1
2018-Jul-18 16:30N 49°45' W 124°25'4 7.2
2018-Jul-18 15:59N 49°42' W 124°20'4 7.3
2018-Jul-18 15:30N 49°40' W 124°17'4 7.4
2018-Jul-18 14:59N 49°37' W 124°13'3 7.2
2018-Jul-18 14:30N 49°34' W 124°09'8 7.3
2018-Jul-18 13:23N 49°27' W 124°02'3 6.4
2018-Jul-18 12:55N 49°25' W 123°60'4 6.3
2018-Jul-18 12:15N 49°22' W 123°55'24 5.9
2018-Jul-18 08:10N 49°08' W 123°25'2 6.6
2018-Jul-18 07:56N 49°07' W 123°24'3 6.1
2018-Jul-18 07:29N 49°06' W 123°20'4 7.0
2018-Jul-18 06:59N 49°07' W 123°15'3 5.7
2018-Jul-18 06:30N 49°07' W 123°11'3 6.3
2018-Jul-18 05:59N 49°07' W 123°06'3 6.0
2018-Jul-18 05:28N 49°09' W 123°02'3 6.1
2018-Jul-18 04:57N 49°09' W 122°58'3 5.8
2018-Jul-18 04:30N 49°11' W 122°55'1 1.7
2018-Jul-18 03:57N 49°12' W 122°54'3 5.9
2018-Jul-18 03:30N 49°11' W 122°58'5 1.5
2018-Jul-17 23:54N 49°12' W 123°06'2 4.0
2018-Jul-17 23:30N 49°12' W 123°08'0 0.0
2018-Jul-17 22:59N 49°12' W 123°08'0 0.0
2018-Jul-17 22:24N 49°12' W 123°08'  
Track history (hours):
 
Tides and Currents Weather Stations Pressure Air Temp Water Temp Dewpoint Dewpoint Depression Visibility Wind Speed Wind Dir Waves Ship Positions

North Arm Wave

Last reported at 2018-Jul-20 12:00 UTC. Time now 2018-Jul-22 04:59 UTC.
Position N 52°43' W 128°34'.

Length 19 m; draft 4 m.

Type: Tug. MMSI: 316005494.

Date/timePositionNaut miles runAvg speedWind from/ knotsBaromVisibWave heightAir tempDewpointWater temp
2018-Jul-20 12:00N 52°43' W 128°34'4 7.0
2018-Jul-20 11:28N 52°40' W 128°32'3 6.8
2018-Jul-20 11:00N 52°37' W 128°29'3 5.6
2018-Jul-20 10:30N 52°34' W 128°28'4 7.2
2018-Jul-20 10:00N 52°31' W 128°27'4 7.2
2018-Jul-20 09:30N 52°27' W 128°28'3 7.0
2018-Jul-20 09:00N 52°24' W 128°30'3 6.9
2018-Jul-20 08:30N 52°21' W 128°31'3 6.6
2018-Jul-20 08:00N 52°18' W 128°30'3 5.8
2018-Jul-20 07:30N 52°16' W 128°26'3 6.7
2018-Jul-20 07:00N 52°15' W 128°21'4 7.2
2018-Jul-20 06:30N 52°14' W 128°15'3 6.5
2018-Jul-20 06:00N 52°13' W 128°10'3 6.2
2018-Jul-20 05:30N 52°11' W 128°06'3 6.3
2018-Jul-20 05:00N 52°08' W 128°08'3 6.4
2018-Jul-20 04:30N 52°05' W 128°07'3 6.3
2018-Jul-20 04:00N 52°04' W 128°02'3 6.8
2018-Jul-20 03:30N 52°04' W 127°56'3 5.1
2018-Jul-20 03:00N 52°01' W 127°56'3 6.4
2018-Jul-20 02:30N 51°58' W 127°56'3 6.5
2018-Jul-20 02:00N 51°55' W 127°56'3 6.7
2018-Jul-20 01:30N 51°51' W 127°57'3 6.9
2018-Jul-20 01:00N 51°48' W 127°57'4 7.1
2018-Jul-20 00:30N 51°44' W 127°57'3 6.8
2018-Jul-20 00:00N 51°41' W 127°56'3 6.0
2018-Jul-19 23:30N 51°38' W 127°54'3 5.9
2018-Jul-19 23:00N 51°35' W 127°53'3 6.3
2018-Jul-19 22:30N 51°32' W 127°52'3 6.2
2018-Jul-19 22:00N 51°29' W 127°52'3 6.6
2018-Jul-19 21:30N 51°26' W 127°52'3 6.0
2018-Jul-19 21:00N 51°23' W 127°53'3 5.4
2018-Jul-19 20:30N 51°20' W 127°53'3 5.2
2018-Jul-19 20:00N 51°18' W 127°53'3 5.1
2018-Jul-19 19:30N 51°15' W 127°52'3 5.2
2018-Jul-19 18:59N 51°12' W 127°52'3 5.2
2018-Jul-19 18:30N 51°10' W 127°50'3 5.3
2018-Jul-19 18:00N 51°08' W 127°48'3 5.6
2018-Jul-19 17:30N 51°06' W 127°45'3 5.5
2018-Jul-19 17:00N 51°04' W 127°42'3 6.1
2018-Jul-19 16:30N 51°02' W 127°38'3 6.5
2018-Jul-19 16:00N 50°59' W 127°35'3 6.6
2018-Jul-19 15:30N 50°58' W 127°30'3 6.5
2018-Jul-19 14:59N 50°56' W 127°26'6 6.5
2018-Jul-19 14:00N 50°52' W 127°18'3 6.8
2018-Jul-19 13:30N 50°50' W 127°13'3 6.7
2018-Jul-19 12:58N 50°49' W 127°08'3 6.0
2018-Jul-19 12:30N 50°47' W 127°04'3 6.8
2018-Jul-19 12:00N 50°45' W 127°00'3 6.1
2018-Jul-19 11:30N 50°43' W 126°57'3 6.0
2018-Jul-19 11:00N 50°41' W 126°53'3 5.9
2018-Jul-19 10:30N 50°39' W 126°50'3 6.5
2018-Jul-19 10:00N 50°36' W 126°49'4 7.6
2018-Jul-19 09:30N 50°33' W 126°45'4 7.3
2018-Jul-19 09:00N 50°31' W 126°40'4 7.1
2018-Jul-19 08:30N 50°30' W 126°35'4 7.7
2018-Jul-19 08:00N 50°30' W 126°29'4 7.4
2018-Jul-19 07:28N 50°30' W 126°22'5 7.4
2018-Jul-19 06:48N 50°29' W 126°15'2 7.5
2018-Jul-19 06:29N 50°29' W 126°11'4 7.0
2018-Jul-19 05:58N 50°28' W 126°05'3 5.8
2018-Jul-19 05:27N 50°27' W 126°01'19 4.7
2018-Jul-19 01:26N 50°22' W 125°33'2 3.3
2018-Jul-19 00:58N 50°21' W 125°30'3 5.4
2018-Jul-19 00:29N 50°20' W 125°27'3 5.9
2018-Jul-18 23:58N 50°17' W 125°25'3 6.9
2018-Jul-18 23:30N 50°14' W 125°23'4 7.4
2018-Jul-18 23:00N 50°11' W 125°22'3 6.8
2018-Jul-18 22:30N 50°07' W 125°21'4 7.8
2018-Jul-18 22:00N 50°05' W 125°16'4 7.7
2018-Jul-18 21:30N 50°02' W 125°13'4 6.8
2018-Jul-18 21:00N 49°59' W 125°10'4 7.6
2018-Jul-18 20:29N 49°57' W 125°05'3 6.8
2018-Jul-18 19:59N 49°55' W 124°60'3 6.8
2018-Jul-18 19:30N 49°54' W 124°55'4 7.3
2018-Jul-18 19:00N 49°52' W 124°51'4 7.6
2018-Jul-18 18:30N 49°50' W 124°46'4 7.5
2018-Jul-18 18:00N 49°49' W 124°40'4 7.3
2018-Jul-18 17:30N 49°48' W 124°34'4 7.5
2018-Jul-18 17:00N 49°46' W 124°29'4 7.1
2018-Jul-18 16:30N 49°45' W 124°25'4 7.2
2018-Jul-18 15:59N 49°42' W 124°20'4 7.3
2018-Jul-18 15:30N 49°40' W 124°17'4 7.4
2018-Jul-18 14:59N 49°37' W 124°13'3 7.2
2018-Jul-18 14:30N 49°34' W 124°09'8 7.3
2018-Jul-18 13:23N 49°27' W 124°02'3 6.4
2018-Jul-18 12:55N 49°25' W 123°60'4 6.3
2018-Jul-18 12:15N 49°22' W 123°55'24 5.9
2018-Jul-18 08:10N 49°08' W 123°25'2 6.6
2018-Jul-18 07:56N 49°07' W 123°24'3 6.1
2018-Jul-18 07:29N 49°06' W 123°20'4 7.0
2018-Jul-18 06:59N 49°07' W 123°15'3 5.7
2018-Jul-18 06:30N 49°07' W 123°11'3 6.3
2018-Jul-18 05:59N 49°07' W 123°06'3 6.0
2018-Jul-18 05:28N 49°09' W 123°02'3 6.1
2018-Jul-18 04:57N 49°09' W 122°58'3 5.8
2018-Jul-18 04:30N 49°11' W 122°55'1 1.7
2018-Jul-18 03:57N 49°12' W 122°54'3 5.9
2018-Jul-18 03:30N 49°11' W 122°58'5 1.5
2018-Jul-17 23:54N 49°12' W 123°06'2 4.0
2018-Jul-17 23:30N 49°12' W 123°08'0 0.0
2018-Jul-17 22:59N 49°12' W 123°08'0 0.0
2018-Jul-17 22:24N 49°12' W 123°08'  

Dump ship's entire track history